sensor_id;sensor_type;location;lat;lon;timestamp;temperature;humidity
65034;DHT22;51601;51.356;12.458;2024-03-07T00:02:26;6.20;98.30
65034;DHT22;51601;51.356;12.458;2024-03-07T00:06:45;6.20;98.70
65034;DHT22;51601;51.356;12.458;2024-03-07T00:11:05;6.20;98.90
65034;DHT22;51601;51.356;12.458;2024-03-07T00:15:23;6.20;99.20
65034;DHT22;51601;51.356;12.458;2024-03-07T00:19:42;6.20;99.70
65034;DHT22;51601;51.356;12.458;2024-03-07T00:24:01;6.10;99.90
65034;DHT22;51601;51.356;12.458;2024-03-07T00:28:21;6.10;99.90
65034;DHT22;51601;51.356;12.458;2024-03-07T00:32:39;6.00;99.90
65034;DHT22;51601;51.356;12.458;2024-03-07T00:36:57;5.90;99.90
65034;DHT22;51601;51.356;12.458;2024-03-07T00:41:16;5.90;99.90
65034;DHT22;51601;51.356;12.458;2024-03-07T00:45:33;5.90;99.90
65034;DHT22;51601;51.356;12.458;2024-03-07T00:49:51;5.90;99.90
65034;DHT22;51601;51.356;12.458;2024-03-07T00:54:09;6.00;99.90
65034;DHT22;51601;51.356;12.458;2024-03-07T00:58:31;6.00;99.90
65034;DHT22;51601;51.356;12.458;2024-03-07T01:02:48;6.10;99.90
65034;DHT22;51601;51.356;12.458;2024-03-07T01:07:09;6.10;99.90
65034;DHT22;51601;51.356;12.458;2024-03-07T01:11:27;6.20;99.90
65034;DHT22;51601;51.356;12.458;2024-03-07T01:15:47;6.20;99.90
65034;DHT22;51601;51.356;12.458;2024-03-07T01:20:07;6.20;99.90
65034;DHT22;51601;51.356;12.458;2024-03-07T01:24:28;6.20;99.90
65034;DHT22;51601;51.356;12.458;2024-03-07T01:28:46;6.20;99.90
65034;DHT22;51601;51.356;12.458;2024-03-07T01:33:05;6.20;99.90
65034;DHT22;51601;51.356;12.458;2024-03-07T01:37:25;6.20;99.90
65034;DHT22;51601;51.356;12.458;2024-03-07T01:41:43;6.30;99.90
65034;DHT22;51601;51.356;12.458;2024-03-07T01:46:02;6.30;99.90
65034;DHT22;51601;51.356;12.458;2024-03-07T01:50:24;6.30;99.90
65034;DHT22;51601;51.356;12.458;2024-03-07T01:54:43;6.20;99.90
65034;DHT22;51601;51.356;12.458;2024-03-07T01:59:01;6.20;99.90
65034;DHT22;51601;51.356;12.458;2024-03-07T02:03:22;6.20;99.90
65034;DHT22;51601;51.356;12.458;2024-03-07T02:07:43;6.30;99.90
65034;DHT22;51601;51.356;12.458;2024-03-07T02:12:02;6.20;99.90
65034;DHT22;51601;51.356;12.458;2024-03-07T02:16:19;6.20;99.90
65034;DHT22;51601;51.356;12.458;2024-03-07T02:24:57;6.20;99.90
65034;DHT22;51601;51.356;12.458;2024-03-07T02:29:14;6.20;99.90
65034;DHT22;51601;51.356;12.458;2024-03-07T02:33:32;6.10;99.90
65034;DHT22;51601;51.356;12.458;2024-03-07T02:37:50;6.10;99.90
65034;DHT22;51601;51.356;12.458;2024-03-07T02:42:09;6.10;99.90
65034;DHT22;51601;51.356;12.458;2024-03-07T02:46:26;6.10;99.90
65034;DHT22;51601;51.356;12.458;2024-03-07T02:50:44;6.00;99.90
65034;DHT22;51601;51.356;12.458;2024-03-07T02:55:02;6.00;99.90
65034;DHT22;51601;51.356;12.458;2024-03-07T02:59:21;6.00;99.90
65034;DHT22;51601;51.356;12.458;2024-03-07T03:03:38;6.00;99.90
65034;DHT22;51601;51.356;12.458;2024-03-07T03:07:59;6.00;99.90
65034;DHT22;51601;51.356;12.458;2024-03-07T03:12:17;5.90;99.90
65034;DHT22;51601;51.356;12.458;2024-03-07T03:16:42;6.00;99.90
65034;DHT22;51601;51.356;12.458;2024-03-07T03:21:06;5.90;99.90
65034;DHT22;51601;51.356;12.458;2024-03-07T03:25:24;5.90;99.90
65034;DHT22;51601;51.356;12.458;2024-03-07T03:29:42;5.90;99.90
65034;DHT22;51601;51.356;12.458;2024-03-07T03:34:01;5.90;99.90
65034;DHT22;51601;51.356;12.458;2024-03-07T03:38:18;5.90;99.90
65034;DHT22;51601;51.356;12.458;2024-03-07T03:42:37;5.90;99.90
65034;DHT22;51601;51.356;12.458;2024-03-07T03:46:54;5.90;99.90
65034;DHT22;51601;51.356;12.458;2024-03-07T03:51:14;5.90;99.90
65034;DHT22;51601;51.356;12.458;2024-03-07T03:55:33;5.90;99.90
65034;DHT22;51601;51.356;12.458;2024-03-07T03:59:54;6.00;99.90
65034;DHT22;51601;51.356;12.458;2024-03-07T04:04:12;5.90;99.90
65034;DHT22;51601;51.356;12.458;2024-03-07T04:08:32;6.00;99.90
65034;DHT22;51601;51.356;12.458;2024-03-07T04:12:55;6.00;99.90
65034;DHT22;51601;51.356;12.458;2024-03-07T04:17:13;6.00;99.90
65034;DHT22;51601;51.356;12.458;2024-03-07T04:21:31;6.00;99.90
65034;DHT22;51601;51.356;12.458;2024-03-07T04:25:50;6.10;99.90
65034;DHT22;51601;51.356;12.458;2024-03-07T04:30:08;6.10;99.90
65034;DHT22;51601;51.356;12.458;2024-03-07T04:34:28;6.10;99.90
65034;DHT22;51601;51.356;12.458;2024-03-07T04:38:46;6.00;99.90
65034;DHT22;51601;51.356;12.458;2024-03-07T04:43:06;6.00;99.90
65034;DHT22;51601;51.356;12.458;2024-03-07T04:47:25;6.10;99.90
65034;DHT22;51601;51.356;12.458;2024-03-07T04:51:43;6.00;99.90
65034;DHT22;51601;51.356;12.458;2024-03-07T04:56:02;6.00;99.90
65034;DHT22;51601;51.356;12.458;2024-03-07T05:00:21;6.00;99.90
65034;DHT22;51601;51.356;12.458;2024-03-07T05:04:41;6.00;99.90
65034;DHT22;51601;51.356;12.458;2024-03-07T05:08:59;6.00;99.90
65034;DHT22;51601;51.356;12.458;2024-03-07T05:13:17;5.90;99.90
65034;DHT22;51601;51.356;12.458;2024-03-07T05:17:36;5.90;99.90
65034;DHT22;51601;51.356;12.458;2024-03-07T05:21:56;5.80;99.90
65034;DHT22;51601;51.356;12.458;2024-03-07T05:26:14;5.80;99.90
65034;DHT22;51601;51.356;12.458;2024-03-07T05:30:32;5.70;99.90
65034;DHT22;51601;51.356;12.458;2024-03-07T05:34:52;5.70;99.90
65034;DHT22;51601;51.356;12.458;2024-03-07T05:39:11;5.60;99.90
65034;DHT22;51601;51.356;12.458;2024-03-07T05:43:29;5.60;99.90
65034;DHT22;51601;51.356;12.458;2024-03-07T05:47:47;5.50;99.90
65034;DHT22;51601;51.356;12.458;2024-03-07T05:52:07;5.40;99.90
65034;DHT22;51601;51.356;12.458;2024-03-07T05:56:26;5.30;99.90
65034;DHT22;51601;51.356;12.458;2024-03-07T06:00:45;5.20;99.90
65034;DHT22;51601;51.356;12.458;2024-03-07T06:05:09;5.10;99.90
65034;DHT22;51601;51.356;12.458;2024-03-07T06:09:34;5.10;99.90
65034;DHT22;51601;51.356;12.458;2024-03-07T06:13:51;5.10;99.90
65034;DHT22;51601;51.356;12.458;2024-03-07T06:18:12;5.10;99.90
65034;DHT22;51601;51.356;12.458;2024-03-07T06:22:30;5.00;99.90
65034;DHT22;51601;51.356;12.458;2024-03-07T06:26:50;5.00;99.90
65034;DHT22;51601;51.356;12.458;2024-03-07T06:31:15;5.00;99.90
65034;DHT22;51601;51.356;12.458;2024-03-07T06:35:37;5.00;99.90
65034;DHT22;51601;51.356;12.458;2024-03-07T06:39:55;5.00;99.90
65034;DHT22;51601;51.356;12.458;2024-03-07T06:44:14;5.00;99.90
65034;DHT22;51601;51.356;12.458;2024-03-07T06:48:34;5.10;99.90
65034;DHT22;51601;51.356;12.458;2024-03-07T06:52:52;5.10;99.90
65034;DHT22;51601;51.356;12.458;2024-03-07T06:57:10;5.10;99.90
65034;DHT22;51601;51.356;12.458;2024-03-07T07:01:30;5.10;99.90
65034;DHT22;51601;51.356;12.458;2024-03-07T07:05:49;5.10;99.90
65034;DHT22;51601;51.356;12.458;2024-03-07T07:10:08;5.20;99.90
65034;DHT22;51601;51.356;12.458;2024-03-07T07:14:31;5.50;99.90
65034;DHT22;51601;51.356;12.458;2024-03-07T07:18:51;6.20;99.90
65034;DHT22;51601;51.356;12.458;2024-03-07T07:23:11;6.90;99.90
65034;DHT22;51601;51.356;12.458;2024-03-07T07:27:29;7.80;99.90
65034;DHT22;51601;51.356;12.458;2024-03-07T07:31:47;8.70;99.90
65034;DHT22;51601;51.356;12.458;2024-03-07T07:36:06;9.40;92.90
65034;DHT22;51601;51.356;12.458;2024-03-07T07:40:26;10.00;86.20
65034;DHT22;51601;51.356;12.458;2024-03-07T07:44:45;10.40;79.00
65034;DHT22;51601;51.356;12.458;2024-03-07T07:49:08;10.90;75.30
65034;DHT22;51601;51.356;12.458;2024-03-07T07:53:28;11.20;72.20
65034;DHT22;51601;51.356;12.458;2024-03-07T07:57:49;11.50;68.30
65034;DHT22;51601;51.356;12.458;2024-03-07T08:02:08;11.70;66.40
65034;DHT22;51601;51.356;12.458;2024-03-07T08:06:27;11.90;63.90
65034;DHT22;51601;51.356;12.458;2024-03-07T08:10:49;11.90;60.40
65034;DHT22;51601;51.356;12.458;2024-03-07T08:15:09;11.90;59.80
65034;DHT22;51601;51.356;12.458;2024-03-07T08:19:30;11.80;59.60
65034;DHT22;51601;51.356;12.458;2024-03-07T08:23:48;11.60;59.50
65034;DHT22;51601;51.356;12.458;2024-03-07T08:28:07;11.40;59.90
65034;DHT22;51601;51.356;12.458;2024-03-07T08:32:27;11.20;60.20
65034;DHT22;51601;51.356;12.458;2024-03-07T08:36:45;11.10;59.70
65034;DHT22;51601;51.356;12.458;2024-03-07T08:41:03;11.10;59.00
65034;DHT22;51601;51.356;12.458;2024-03-07T08:45:23;11.10;58.00
65034;DHT22;51601;51.356;12.458;2024-03-07T08:49:43;11.20;56.70
65034;DHT22;51601;51.356;12.458;2024-03-07T08:54:03;11.50;57.20
65034;DHT22;51601;51.356;12.458;2024-03-07T08:58:22;11.90;56.40
65034;DHT22;51601;51.356;12.458;2024-03-07T09:02:41;12.20;55.10
65034;DHT22;51601;51.356;12.458;2024-03-07T09:07:01;12.40;53.10
65034;DHT22;51601;51.356;12.458;2024-03-07T09:11:19;12.50;51.60
65034;DHT22;51601;51.356;12.458;2024-03-07T09:15:37;12.40;50.90
65034;DHT22;51601;51.356;12.458;2024-03-07T09:19:56;12.10;50.90
65034;DHT22;51601;51.356;12.458;2024-03-07T09:24:13;12.00;50.50
65034;DHT22;51601;51.356;12.458;2024-03-07T09:28:31;11.90;51.40
65034;DHT22;51601;51.356;12.458;2024-03-07T09:32:49;12.20;51.30
65034;DHT22;51601;51.356;12.458;2024-03-07T09:37:08;12.20;49.60
65034;DHT22;51601;51.356;12.458;2024-03-07T09:41:25;11.60;49.90
65034;DHT22;51601;51.356;12.458;2024-03-07T09:45:43;11.20;51.40
65034;DHT22;51601;51.356;12.458;2024-03-07T09:50:05;11.10;51.90
65034;DHT22;51601;51.356;12.458;2024-03-07T09:54:27;11.20;51.40
65034;DHT22;51601;51.356;12.458;2024-03-07T09:58:49;10.90;50.80
65034;DHT22;51601;51.356;12.458;2024-03-07T10:03:09;10.30;51.90
65034;DHT22;51601;51.356;12.458;2024-03-07T10:07:29;9.70;53.40
65034;DHT22;51601;51.356;12.458;2024-03-07T10:11:56;9.40;55.00
65034;DHT22;51601;51.356;12.458;2024-03-07T10:16:15;9.40;55.20
65034;DHT22;51601;51.356;12.458;2024-03-07T10:20:32;9.30;55.50
65034;DHT22;51601;51.356;12.458;2024-03-07T10:24:50;9.30;54.90
65034;DHT22;51601;51.356;12.458;2024-03-07T10:29:10;9.50;55.00
65034;DHT22;51601;51.356;12.458;2024-03-07T10:33:28;10.20;53.60
65034;DHT22;51601;51.356;12.458;2024-03-07T10:37:51;10.70;51.10
65034;DHT22;51601;51.356;12.458;2024-03-07T10:42:14;10.80;51.10
65034;DHT22;51601;51.356;12.458;2024-03-07T10:46:34;11.00;51.20
65034;DHT22;51601;51.356;12.458;2024-03-07T10:51:02;11.30;50.50
65034;DHT22;51601;51.356;12.458;2024-03-07T10:55:34;11.40;49.80
65034;DHT22;51601;51.356;12.458;2024-03-07T10:59:57;11.50;49.60
65034;DHT22;51601;51.356;12.458;2024-03-07T11:04:30;11.60;48.60
65034;DHT22;51601;51.356;12.458;2024-03-07T11:08:53;11.70;48.40
65034;DHT22;51601;51.356;12.458;2024-03-07T11:13:11;11.90;48.50
65034;DHT22;51601;51.356;12.458;2024-03-07T11:17:32;11.70;48.10
65034;DHT22;51601;51.356;12.458;2024-03-07T11:21:51;11.50;47.50
65034;DHT22;51601;51.356;12.458;2024-03-07T11:26:08;10.80;48.30
65034;DHT22;51601;51.356;12.458;2024-03-07T11:30:29;10.20;50.30
65034;DHT22;51601;51.356;12.458;2024-03-07T11:34:47;9.70;51.10
65034;DHT22;51601;51.356;12.458;2024-03-07T11:39:06;9.10;52.60
65034;DHT22;51601;51.356;12.458;2024-03-07T11:43:41;8.70;54.60
65034;DHT22;51601;51.356;12.458;2024-03-07T11:48:00;8.30;55.80
65034;DHT22;51601;51.356;12.458;2024-03-07T11:52:23;8.00;56.60
65034;DHT22;51601;51.356;12.458;2024-03-07T11:56:46;7.80;58.00
65034;DHT22;51601;51.356;12.458;2024-03-07T12:01:09;7.60;59.10
65034;DHT22;51601;51.356;12.458;2024-03-07T12:05:32;7.50;59.20
65034;DHT22;51601;51.356;12.458;2024-03-07T12:09:54;7.40;59.30
65034;DHT22;51601;51.356;12.458;2024-03-07T12:14:14;7.40;59.60
65034;DHT22;51601;51.356;12.458;2024-03-07T12:18:34;7.40;59.70
65034;DHT22;51601;51.356;12.458;2024-03-07T12:22:59;7.30;59.40
65034;DHT22;51601;51.356;12.458;2024-03-07T12:27:19;7.20;59.90
65034;DHT22;51601;51.356;12.458;2024-03-07T12:31:38;7.20;59.90
65034;DHT22;51601;51.356;12.458;2024-03-07T12:36:02;7.20;60.50
65034;DHT22;51601;51.356;12.458;2024-03-07T12:40:28;7.30;60.10
65034;DHT22;51601;51.356;12.458;2024-03-07T12:44:56;7.30;59.90
65034;DHT22;51601;51.356;12.458;2024-03-07T12:49:18;7.30;59.60
65034;DHT22;51601;51.356;12.458;2024-03-07T12:53:35;7.40;59.10
65034;DHT22;51601;51.356;12.458;2024-03-07T12:57:56;7.50;59.20
65034;DHT22;51601;51.356;12.458;2024-03-07T13:02:14;7.50;58.60
65034;DHT22;51601;51.356;12.458;2024-03-07T13:06:34;7.60;59.20
65034;DHT22;51601;51.356;12.458;2024-03-07T13:10:53;7.70;59.20
65034;DHT22;51601;51.356;12.458;2024-03-07T13:15:11;7.70;58.90
65034;DHT22;51601;51.356;12.458;2024-03-07T13:19:30;7.80;58.80
65034;DHT22;51601;51.356;12.458;2024-03-07T13:23:49;7.90;59.10
65034;DHT22;51601;51.356;12.458;2024-03-07T13:28:10;7.90;59.20
65034;DHT22;51601;51.356;12.458;2024-03-07T13:32:29;7.80;59.10
65034;DHT22;51601;51.356;12.458;2024-03-07T13:36:48;7.70;59.50
65034;DHT22;51601;51.356;12.458;2024-03-07T13:41:07;7.50;59.70
65034;DHT22;51601;51.356;12.458;2024-03-07T13:45:31;7.40;60.10
65034;DHT22;51601;51.356;12.458;2024-03-07T13:49:57;7.40;60.00
65034;DHT22;51601;51.356;12.458;2024-03-07T13:54:16;7.30;59.70
65034;DHT22;51601;51.356;12.458;2024-03-07T13:59:20;7.20;59.80
65034;DHT22;51601;51.356;12.458;2024-03-07T14:04:11;7.10;60.40
65034;DHT22;51601;51.356;12.458;2024-03-07T14:08:55;7.10;60.60
65034;DHT22;51601;51.356;12.458;2024-03-07T14:13:33;7.10;60.90
65034;DHT22;51601;51.356;12.458;2024-03-07T14:18:18;7.30;60.70
65034;DHT22;51601;51.356;12.458;2024-03-07T14:23:01;7.40;60.40
65034;DHT22;51601;51.356;12.458;2024-03-07T14:27:30;7.40;59.80
65034;DHT22;51601;51.356;12.458;2024-03-07T14:31:51;7.50;59.90
65034;DHT22;51601;51.356;12.458;2024-03-07T14:36:14;7.50;59.90
65034;DHT22;51601;51.356;12.458;2024-03-07T14:40:32;7.50;59.80
65034;DHT22;51601;51.356;12.458;2024-03-07T14:44:50;7.50;59.70
65034;DHT22;51601;51.356;12.458;2024-03-07T14:49:16;7.40;60.10
65034;DHT22;51601;51.356;12.458;2024-03-07T14:53:46;7.30;60.00
65034;DHT22;51601;51.356;12.458;2024-03-07T14:58:03;7.30;60.20
65034;DHT22;51601;51.356;12.458;2024-03-07T15:02:24;7.20;60.30
65034;DHT22;51601;51.356;12.458;2024-03-07T15:06:42;7.20;60.50
65034;DHT22;51601;51.356;12.458;2024-03-07T15:11:07;7.20;60.70
65034;DHT22;51601;51.356;12.458;2024-03-07T15:15:30;7.10;61.00
65034;DHT22;51601;51.356;12.458;2024-03-07T15:19:48;7.10;61.10
65034;DHT22;51601;51.356;12.458;2024-03-07T15:24:07;7.10;61.40
65034;DHT22;51601;51.356;12.458;2024-03-07T15:28:26;7.10;61.50
65034;DHT22;51601;51.356;12.458;2024-03-07T15:32:47;7.10;61.60
65034;DHT22;51601;51.356;12.458;2024-03-07T15:37:07;7.10;62.00
65034;DHT22;51601;51.356;12.458;2024-03-07T15:41:25;7.10;61.90
65034;DHT22;51601;51.356;12.458;2024-03-07T15:45:44;7.00;61.60
65034;DHT22;51601;51.356;12.458;2024-03-07T15:50:01;7.00;61.80
65034;DHT22;51601;51.356;12.458;2024-03-07T15:54:22;7.00;62.10
65034;DHT22;51601;51.356;12.458;2024-03-07T15:58:40;7.00;62.10
65034;DHT22;51601;51.356;12.458;2024-03-07T16:03:01;7.00;62.20
65034;DHT22;51601;51.356;12.458;2024-03-07T16:07:22;7.00;62.40
65034;DHT22;51601;51.356;12.458;2024-03-07T16:11:44;6.90;62.60
65034;DHT22;51601;51.356;12.458;2024-03-07T16:16:02;6.90;62.30
65034;DHT22;51601;51.356;12.458;2024-03-07T16:20:25;6.90;61.90
65034;DHT22;51601;51.356;12.458;2024-03-07T16:24:44;6.90;62.50
65034;DHT22;51601;51.356;12.458;2024-03-07T16:29:05;6.90;62.30
65034;DHT22;51601;51.356;12.458;2024-03-07T16:33:29;6.90;62.70
65034;DHT22;51601;51.356;12.458;2024-03-07T16:37:53;6.80;62.70
65034;DHT22;51601;51.356;12.458;2024-03-07T17:10:51;6.60;64.80
65034;DHT22;51601;51.356;12.458;2024-03-07T17:15:13;6.60;65.30
65034;DHT22;51601;51.356;12.458;2024-03-07T17:19:31;6.50;65.30
65034;DHT22;51601;51.356;12.458;2024-03-07T17:23:49;6.50;65.60
65034;DHT22;51601;51.356;12.458;2024-03-07T17:28:08;6.40;65.70
65034;DHT22;51601;51.356;12.458;2024-03-07T17:32:25;6.30;66.00
65034;DHT22;51601;51.356;12.458;2024-03-07T17:36:48;6.30;66.30
65034;DHT22;51601;51.356;12.458;2024-03-07T17:41:07;6.30;66.50
65034;DHT22;51601;51.356;12.458;2024-03-07T17:45:28;6.20;66.80
65034;DHT22;51601;51.356;12.458;2024-03-07T17:49:53;6.10;67.10
65034;DHT22;51601;51.356;12.458;2024-03-07T17:54:11;6.10;67.40
65034;DHT22;51601;51.356;12.458;2024-03-07T17:58:29;6.00;67.60
65034;DHT22;51601;51.356;12.458;2024-03-07T18:02:51;6.00;68.00
65034;DHT22;51601;51.356;12.458;2024-03-07T18:07:11;5.90;68.20
65034;DHT22;51601;51.356;12.458;2024-03-07T18:11:29;5.80;68.60
65034;DHT22;51601;51.356;12.458;2024-03-07T18:15:50;5.70;68.80
65034;DHT22;51601;51.356;12.458;2024-03-07T18:20:10;5.70;69.00
65034;DHT22;51601;51.356;12.458;2024-03-07T18:24:33;5.60;69.10
65034;DHT22;51601;51.356;12.458;2024-03-07T18:28:51;5.60;69.30
65034;DHT22;51601;51.356;12.458;2024-03-07T18:33:15;5.60;69.50
65034;DHT22;51601;51.356;12.458;2024-03-07T18:37:40;5.50;69.60
65034;DHT22;51601;51.356;12.458;2024-03-07T18:42:00;5.50;69.80
65034;DHT22;51601;51.356;12.458;2024-03-07T18:46:24;5.40;70.00
65034;DHT22;51601;51.356;12.458;2024-03-07T18:50:43;5.30;70.10
65034;DHT22;51601;51.356;12.458;2024-03-07T18:55:09;5.30;70.20
65034;DHT22;51601;51.356;12.458;2024-03-07T18:59:35;5.30;70.40
65034;DHT22;51601;51.356;12.458;2024-03-07T19:03:55;5.20;70.50
65034;DHT22;51601;51.356;12.458;2024-03-07T19:08:13;5.20;70.80
65034;DHT22;51601;51.356;12.458;2024-03-07T19:12:42;5.10;70.80
65034;DHT22;51601;51.356;12.458;2024-03-07T19:17:05;5.00;71.00
65034;DHT22;51601;51.356;12.458;2024-03-07T19:21:25;4.90;71.20
65034;DHT22;51601;51.356;12.458;2024-03-07T19:25:44;4.80;71.30
65034;DHT22;51601;51.356;12.458;2024-03-07T19:30:07;4.70;71.50
65034;DHT22;51601;51.356;12.458;2024-03-07T19:34:29;4.60;71.70
65034;DHT22;51601;51.356;12.458;2024-03-07T19:38:50;4.50;72.00
65034;DHT22;51601;51.356;12.458;2024-03-07T19:43:09;4.50;72.30
65034;DHT22;51601;51.356;12.458;2024-03-07T19:47:31;4.30;72.60
65034;DHT22;51601;51.356;12.458;2024-03-07T19:51:47;4.20;73.00
65034;DHT22;51601;51.356;12.458;2024-03-07T19:56:06;4.20;73.50
65034;DHT22;51601;51.356;12.458;2024-03-07T20:00:23;4.10;73.70
65034;DHT22;51601;51.356;12.458;2024-03-07T20:04:44;4.00;74.10
65034;DHT22;51601;51.356;12.458;2024-03-07T20:09:03;3.90;74.60
65034;DHT22;51601;51.356;12.458;2024-03-07T20:13:21;3.80;74.90
65034;DHT22;51601;51.356;12.458;2024-03-07T20:17:39;3.70;75.30
65034;DHT22;51601;51.356;12.458;2024-03-07T20:21:58;3.70;75.60
65034;DHT22;51601;51.356;12.458;2024-03-07T20:26:18;3.60;75.80
65034;DHT22;51601;51.356;12.458;2024-03-07T20:30:39;3.40;76.00
65034;DHT22;51601;51.356;12.458;2024-03-07T20:35:00;3.40;76.30
65034;DHT22;51601;51.356;12.458;2024-03-07T20:39:23;3.30;76.40
65034;DHT22;51601;51.356;12.458;2024-03-07T20:43:42;3.20;76.60
65034;DHT22;51601;51.356;12.458;2024-03-07T20:48:01;3.20;76.90
65034;DHT22;51601;51.356;12.458;2024-03-07T20:52:22;3.10;77.10
65034;DHT22;51601;51.356;12.458;2024-03-07T20:56:41;3.00;77.30
65034;DHT22;51601;51.356;12.458;2024-03-07T21:01:04;2.90;77.50
65034;DHT22;51601;51.356;12.458;2024-03-07T21:05:26;2.90;77.70
65034;DHT22;51601;51.356;12.458;2024-03-07T21:09:45;2.70;77.80
65034;DHT22;51601;51.356;12.458;2024-03-07T21:14:06;2.70;78.10
65034;DHT22;51601;51.356;12.458;2024-03-07T21:18:29;2.60;79.00
65034;DHT22;51601;51.356;12.458;2024-03-07T21:22:48;2.60;78.50
65034;DHT22;51601;51.356;12.458;2024-03-07T21:27:08;2.50;78.70
65034;DHT22;51601;51.356;12.458;2024-03-07T21:31:30;2.50;79.00
65034;DHT22;51601;51.356;12.458;2024-03-07T21:35:47;2.40;79.20
65034;DHT22;51601;51.356;12.458;2024-03-07T21:40:06;2.30;79.50
65034;DHT22;51601;51.356;12.458;2024-03-07T21:44:26;2.30;79.90
65034;DHT22;51601;51.356;12.458;2024-03-07T21:48:48;2.20;80.10
65034;DHT22;51601;51.356;12.458;2024-03-07T21:53:08;2.20;80.60
65034;DHT22;51601;51.356;12.458;2024-03-07T21:57:26;2.10;80.90
65034;DHT22;51601;51.356;12.458;2024-03-07T22:01:44;2.00;81.20
65034;DHT22;51601;51.356;12.458;2024-03-07T22:06:06;2.00;81.70
65034;DHT22;51601;51.356;12.458;2024-03-07T22:10:27;2.00;82.30
65034;DHT22;51601;51.356;12.458;2024-03-07T22:14:48;1.90;82.60
65034;DHT22;51601;51.356;12.458;2024-03-07T22:19:06;1.80;83.10
65034;DHT22;51601;51.356;12.458;2024-03-07T22:23:25;1.70;83.70
65034;DHT22;51601;51.356;12.458;2024-03-07T22:27:42;1.60;84.20
65034;DHT22;51601;51.356;12.458;2024-03-07T22:32:00;1.60;85.00
65034;DHT22;51601;51.356;12.458;2024-03-07T22:36:27;1.50;86.00
65034;DHT22;51601;51.356;12.458;2024-03-07T22:40:52;1.50;87.30
65034;DHT22;51601;51.356;12.458;2024-03-07T22:45:10;1.40;88.70
65034;DHT22;51601;51.356;12.458;2024-03-07T22:49:31;1.40;90.00
65034;DHT22;51601;51.356;12.458;2024-03-07T22:53:52;1.30;90.70
65034;DHT22;51601;51.356;12.458;2024-03-07T22:58:11;1.30;91.20
65034;DHT22;51601;51.356;12.458;2024-03-07T23:02:31;1.30;91.70
65034;DHT22;51601;51.356;12.458;2024-03-07T23:06:49;1.30;92.20
65034;DHT22;51601;51.356;12.458;2024-03-07T23:11:07;1.20;92.50
65034;DHT22;51601;51.356;12.458;2024-03-07T23:15:27;1.20;92.90
65034;DHT22;51601;51.356;12.458;2024-03-07T23:19:46;1.10;93.20
65034;DHT22;51601;51.356;12.458;2024-03-07T23:24:05;1.10;93.60
65034;DHT22;51601;51.356;12.458;2024-03-07T23:28:22;1.00;94.00
65034;DHT22;51601;51.356;12.458;2024-03-07T23:32:42;1.00;94.40
65034;DHT22;51601;51.356;12.458;2024-03-07T23:37:04;0.90;94.70
65034;DHT22;51601;51.356;12.458;2024-03-07T23:41:23;0.90;95.20
65034;DHT22;51601;51.356;12.458;2024-03-07T23:45:43;0.90;95.50
65034;DHT22;51601;51.356;12.458;2024-03-07T23:50:04;0.80;95.80
65034;DHT22;51601;51.356;12.458;2024-03-07T23:54:23;0.80;96.10
65034;DHT22;51601;51.356;12.458;2024-03-07T23:58:41;0.80;96.60
